Time;durP1;ratioP1;P1;durP2;ratioP2;P2;SDS_P1;SDS_P2;PMS_P1;PMS_P2;Temp;Humidity;BMP_temperature;BMP_pressure;BME280_temperature;BME280_humidity;BME280_pressure;Samples;Min_cycle;Max_cycle;Signal;HPM_P1;HPM_P2
2022/03/14 00:00:18;;;;;;;18.13;11.97;;;;;;;;;;5062650;28;20228;-81
2022/03/14 00:02:46;;;;;;;21.80;12.33;;;;;;;;;;5062483;28;20697;-81
2022/03/14 00:05:15;;;;;;;17.07;10.97;;;;;;;;;;5062310;28;20332;-81
2022/03/14 00:07:44;;;;;;;17.30;11.87;;;;;;;;;;5063274;28;20210;-81
2022/03/14 00:10:12;;;;;;;17.13;11.17;;;;;;;;;;5063163;28;20249;-80
2022/03/14 00:12:40;;;;;;;16.87;11.20;;;;;;;;;;5062717;28;20294;-80
2022/03/14 00:15:11;;;;;;;18.97;11.60;;;;;;;;;;5062690;28;20311;-81
2022/03/14 00:17:38;;;;;;;14.90;11.13;;;;;;;;;;5063339;28;20259;-81
2022/03/14 00:20:07;;;;;;;19.37;10.70;;;;;;;;;;5061800;28;20224;-80
2022/03/14 00:22:37;;;;;;;18.17;11.17;;;;;;;;;;5062687;28;20217;-80
2022/03/14 00:25:05;;;;;;;17.77;10.70;;;;;;;;;;5062853;28;20339;-80
2022/03/14 00:27:35;;;;;;;18.67;12.67;;;;;;;;;;5062300;28;20209;-80
2022/03/14 00:30:04;;;;;;;18.50;11.30;;;;;;;;;;5061357;28;20731;-80
2022/03/14 00:32:31;;;;;;;22.03;11.20;;;;;;;;;;5062004;28;20229;-81
2022/03/14 00:34:58;;;;;;;18.23;12.27;;;;;;;;;;5061001;28;20313;-80
2022/03/14 00:37:26;;;;;;;18.20;12.00;;;;;;;;;;5061835;28;20205;-80
2022/03/14 00:39:54;;;;;;;18.60;12.83;;;;;;;;;;5062383;28;20237;-80
2022/03/14 00:42:22;;;;;;;20.37;12.63;;;;;;;;;;5061965;28;20256;-80
2022/03/14 00:44:50;;;;;;;16.90;11.33;;;;;;;;;;5061997;28;20234;-80
2022/03/14 00:47:18;;;;;;;17.33;11.80;;;;;;;;;;5061512;28;20210;-80
2022/03/14 00:49:45;;;;;;;16.37;10.40;;;;;;;;;;5062465;28;20320;-80
2022/03/14 00:52:13;;;;;;;17.73;11.63;;;;;;;;;;5061387;28;20226;-80
2022/03/14 00:54:40;;;;;;;16.53;11.13;;;;;;;;;;5060928;28;20434;-81
2022/03/14 00:57:07;;;;;;;16.50;12.00;;;;;;;;;;5062173;28;20782;-81
2022/03/14 00:59:36;;;;;;;17.53;11.40;;;;;;;;;;5060554;28;20215;-81
2022/03/14 01:02:03;;;;;;;18.07;11.20;;;;;;;;;;5061652;28;20578;-81
2022/03/14 01:04:30;;;;;;;16.13;11.03;;;;;;;;;;5061106;28;20214;-82
2022/03/14 01:06:57;;;;;;;18.00;11.57;;;;;;;;;;5061069;28;20198;-81
2022/03/14 01:09:25;;;;;;;16.80;11.40;;;;;;;;;;5060425;28;20210;-81
2022/03/14 01:11:52;;;;;;;17.23;11.90;;;;;;;;;;5060310;28;20229;-81
2022/03/14 01:14:19;;;;;;;18.43;11.73;;;;;;;;;;5060432;28;20206;-80
2022/03/14 01:16:48;;;;;;;21.07;12.70;;;;;;;;;;5060384;28;20233;-81
2022/03/14 01:19:19;;;;;;;20.63;12.07;;;;;;;;;;5063093;28;20236;-81
2022/03/14 01:21:46;;;;;;;18.23;12.30;;;;;;;;;;5062468;28;20272;-81
2022/03/14 01:24:13;;;;;;;18.30;12.00;;;;;;;;;;5062138;28;20212;-81
2022/03/14 01:26:40;;;;;;;17.23;11.93;;;;;;;;;;5061438;28;20248;-81
2022/03/14 01:29:07;;;;;;;17.33;12.37;;;;;;;;;;5062813;28;20202;-81
2022/03/14 01:31:34;;;;;;;17.77;13.13;;;;;;;;;;5061577;28;20241;-80
2022/03/14 01:34:03;;;;;;;20.70;12.40;;;;;;;;;;5063242;28;20225;-80
2022/03/14 01:36:30;;;;;;;18.43;12.00;;;;;;;;;;5061355;28;20244;-81
2022/03/14 01:38:58;;;;;;;17.17;12.13;;;;;;;;;;5061631;28;20206;-81
2022/03/14 01:41:26;;;;;;;21.93;13.77;;;;;;;;;;5061061;28;20237;-81
2022/03/14 01:43:54;;;;;;;19.43;12.30;;;;;;;;;;5061836;28;20297;-81
2022/03/14 01:46:21;;;;;;;18.27;12.40;;;;;;;;;;5061046;28;20264;-81
2022/03/14 01:48:48;;;;;;;17.80;12.80;;;;;;;;;;5061193;28;20209;-80
2022/03/14 01:51:16;;;;;;;19.57;12.70;;;;;;;;;;5061012;28;20234;-82
2022/03/14 01:53:44;;;;;;;18.00;12.63;;;;;;;;;;5061604;28;20743;-81
2022/03/14 01:56:12;;;;;;;19.23;12.30;;;;;;;;;;5060932;28;20233;-81
2022/03/14 01:58:40;;;;;;;16.97;12.03;;;;;;;;;;5060766;28;20197;-81
2022/03/14 02:01:07;;;;;;;17.27;11.67;;;;;;;;;;5059027;28;20765;-81
2022/03/14 02:03:34;;;;;;;19.17;12.87;;;;;;;;;;5054952;28;20201;-81
2022/03/14 02:06:01;;;;;;;19.47;13.33;;;;;;;;;;5057821;28;20233;-81
2022/03/14 02:08:29;;;;;;;14.97;12.23;;;;;;;;;;5063464;28;20209;-81
2022/03/14 02:10:56;;;;;;;19.80;12.53;;;;;;;;;;5064156;28;20237;-81
2022/03/14 02:13:24;;;;;;;16.33;11.83;;;;;;;;;;5063930;28;20233;-81
2022/03/14 02:15:51;;;;;;;18.90;10.77;;;;;;;;;;5062546;28;20248;-81
2022/03/14 02:18:18;;;;;;;18.47;10.63;;;;;;;;;;5063494;28;20204;-81
2022/03/14 02:20:46;;;;;;;16.07;10.37;;;;;;;;;;5062914;28;20238;-81
2022/03/14 02:23:13;;;;;;;14.93;9.77;;;;;;;;;;5064030;28;20202;-81
2022/03/14 02:25:47;;;;;;;14.60;9.40;;;;;;;;;;5061954;28;20245;-81
2022/03/14 02:28:15;;;;;;;13.00;8.73;;;;;;;;;;5062905;28;20260;-81
2022/03/14 02:30:43;;;;;;;15.00;9.33;;;;;;;;;;5062028;28;20242;-81
2022/03/14 02:33:11;;;;;;;13.87;9.23;;;;;;;;;;5063047;28;20226;-81
2022/03/14 02:35:39;;;;;;;10.93;8.50;;;;;;;;;;5061833;28;20240;-81
2022/03/14 02:38:09;;;;;;;12.93;8.97;;;;;;;;;;5062496;28;20252;-81
2022/03/14 02:40:39;;;;;;;15.17;10.10;;;;;;;;;;5062152;28;20257;-81
2022/03/14 02:43:06;;;;;;;15.77;9.63;;;;;;;;;;5062825;28;20216;-80
2022/03/14 02:45:33;;;;;;;17.23;10.17;;;;;;;;;;5061617;28;20229;-81
2022/03/14 02:48:00;;;;;;;13.87;9.50;;;;;;;;;;5062853;28;20202;-80
2022/03/14 02:50:29;;;;;;;12.17;8.50;;;;;;;;;;5062991;28;20236;-81
2022/03/14 02:52:56;;;;;;;16.83;9.47;;;;;;;;;;5074407;22;20222;-81
2022/03/14 02:55:25;;;;;;;12.80;9.83;;;;;;;;;;5054338;28;20221;-81
2022/03/14 02:57:52;;;;;;;15.77;10.23;;;;;;;;;;5043174;28;20233;-81
2022/03/14 03:00:19;;;;;;;14.97;9.67;;;;;;;;;;5061273;28;20237;-81
2022/03/14 03:02:47;;;;;;;15.13;10.37;;;;;;;;;;5063388;28;20215;-81
2022/03/14 03:05:14;;;;;;;15.20;10.00;;;;;;;;;;5059383;28;20233;-81
2022/03/14 03:07:41;;;;;;;11.83;9.50;;;;;;;;;;5045140;28;20851;-81
2022/03/14 03:10:08;;;;;;;16.73;10.30;;;;;;;;;;5044064;28;20238;-81
2022/03/14 03:12:40;;;;;;;14.13;10.17;;;;;;;;;;5043086;28;20237;-81
2022/03/14 03:15:08;;;;;;;12.80;8.50;;;;;;;;;;5042438;28;20298;-81
2022/03/14 03:17:35;;;;;;;13.03;8.87;;;;;;;;;;5051322;28;20561;-81
2022/03/14 03:20:02;;;;;;;11.63;9.47;;;;;;;;;;5063351;28;20723;-81
2022/03/14 03:22:30;;;;;;;10.90;8.57;;;;;;;;;;5064111;28;20230;-81
2022/03/14 03:24:57;;;;;;;10.60;8.63;;;;;;;;;;5068753;28;20704;-81
2022/03/14 03:27:24;;;;;;;11.23;8.53;;;;;;;;;;5057176;28;20222;-81
2022/03/14 03:29:52;;;;;;;9.73;8.40;;;;;;;;;;5057350;28;20241;-81
2022/03/14 03:32:19;;;;;;;8.67;6.80;;;;;;;;;;5069587;28;20245;-81
2022/03/14 03:34:46;;;;;;;9.53;7.57;;;;;;;;;;5056256;28;20238;-81
2022/03/14 03:37:13;;;;;;;7.63;6.47;;;;;;;;;;5052724;28;20210;-81
2022/03/14 03:39:41;;;;;;;9.87;7.27;;;;;;;;;;5043205;28;20248;-81
2022/03/14 03:42:08;;;;;;;7.07;6.10;;;;;;;;;;5055828;28;20260;-82
2022/03/14 03:44:35;;;;;;;7.10;5.80;;;;;;;;;;5055321;28;20205;-82
2022/03/14 03:47:04;;;;;;;7.43;5.40;;;;;;;;;;5055862;28;20215;-81
2022/03/14 03:49:31;;;;;;;6.47;5.30;;;;;;;;;;5044807;28;20226;-81
2022/03/14 03:51:58;;;;;;;6.47;5.13;;;;;;;;;;5037908;28;20238;-81
2022/03/14 03:54:25;;;;;;;6.67;4.87;;;;;;;;;;5037476;28;20234;-81
2022/03/14 03:56:52;;;;;;;5.97;4.87;;;;;;;;;;5038060;28;20577;-81
2022/03/14 03:59:20;;;;;;;7.60;5.33;;;;;;;;;;5037214;28;20207;-81
2022/03/14 04:01:48;;;;;;;7.47;5.47;;;;;;;;;;5037167;28;20273;-82
2022/03/14 04:04:16;;;;;;;6.13;5.17;;;;;;;;;;5037189;28;20206;-81
2022/03/14 04:06:44;;;;;;;5.90;4.90;;;;;;;;;;5032582;28;20385;-81
2022/03/14 04:09:11;;;;;;;8.53;6.17;;;;;;;;;;5036411;28;20210;-82
2022/03/14 04:11:40;;;;;;;4.33;3.90;;;;;;;;;;5034999;28;20270;-82
2022/03/14 04:14:07;;;;;;;5.17;3.93;;;;;;;;;;5035487;28;20262;-82
2022/03/14 04:16:36;;;;;;;4.53;4.13;;;;;;;;;;5035042;28;20261;-82
2022/03/14 04:19:03;;;;;;;4.93;4.17;;;;;;;;;;5036065;28;20199;-81
2022/03/14 04:21:35;;;;;;;5.70;4.90;;;;;;;;;;5034029;28;20234;-81
2022/03/14 04:24:03;;;;;;;5.47;4.67;;;;;;;;;;5028300;28;20195;-81
2022/03/14 04:26:30;;;;;;;4.43;4.03;;;;;;;;;;5034225;28;20250;-82
2022/03/14 04:28:57;;;;;;;7.07;5.23;;;;;;;;;;5023788;28;20214;-82
2022/03/14 04:31:24;;;;;;;4.77;4.37;;;;;;;;;;5015164;28;20835;-82
2022/03/14 04:33:52;;;;;;;5.30;4.33;;;;;;;;;;5015683;28;20436;-82
2022/03/14 04:36:19;;;;;;;5.03;4.53;;;;;;;;;;5015902;28;20605;-81
2022/03/14 04:38:47;;;;;;;5.03;4.53;;;;;;;;;;5015605;28;20227;-81
2022/03/14 04:41:14;;;;;;;4.53;4.13;;;;;;;;;;5015244;28;20239;-82
2022/03/14 04:43:41;;;;;;;6.83;5.00;;;;;;;;;;5015324;28;20203;-81
2022/03/14 04:46:08;;;;;;;5.00;4.43;;;;;;;;;;5016307;28;20242;-81
2022/03/14 04:48:35;;;;;;;5.03;4.53;;;;;;;;;;5015720;28;20242;-82
2022/03/14 04:51:02;;;;;;;4.60;4.20;;;;;;;;;;5015560;28;20674;-81
2022/03/14 04:53:30;;;;;;;5.13;4.70;;;;;;;;;;5016916;28;20231;-81
2022/03/14 04:55:58;;;;;;;4.53;3.93;;;;;;;;;;5015953;28;20235;-81
2022/03/14 04:58:25;;;;;;;5.33;4.37;;;;;;;;;;5015432;28;20261;-82
2022/03/14 05:00:53;;;;;;;4.93;4.53;;;;;;;;;;5014640;28;20900;-82
2022/03/14 05:03:20;;;;;;;3.97;3.67;;;;;;;;;;5014480;28;20224;-82
2022/03/14 05:05:48;;;;;;;5.07;4.57;;;;;;;;;;5014794;28;20235;-82
2022/03/14 05:08:15;;;;;;;6.83;4.53;;;;;;;;;;5016406;28;20210;-81
2022/03/14 05:10:42;;;;;;;5.77;4.77;;;;;;;;;;5017030;28;20235;-82
2022/03/14 05:13:11;;;;;;;4.63;4.23;;;;;;;;;;5015083;28;20227;-82
2022/03/14 05:15:38;;;;;;;4.60;4.00;;;;;;;;;;5012555;28;20239;-82
2022/03/14 05:18:05;;;;;;;4.40;4.07;;;;;;;;;;5013428;28;20207;-82
2022/03/14 05:20:34;;;;;;;3.77;3.47;;;;;;;;;;5012768;28;20231;-82
2022/03/14 05:23:01;;;;;;;3.57;2.80;;;;;;;;;;5012341;28;20227;-82
2022/03/14 05:25:29;;;;;;;3.90;3.50;;;;;;;;;;5012734;28;20609;-82
2022/03/14 05:27:56;;;;;;;4.13;3.83;;;;;;;;;;5012737;28;20207;-82
2022/03/14 05:30:25;;;;;;;3.80;3.50;;;;;;;;;;5012024;28;20898;-82
2022/03/14 05:32:52;;;;;;;3.70;3.30;;;;;;;;;;5014497;28;20239;-78
2022/03/14 05:35:19;;;;;;;3.70;3.40;;;;;;;;;;5015141;28;20325;-82
2022/03/14 05:37:47;;;;;;;2.90;2.70;;;;;;;;;;5015003;28;20206;-83
2022/03/14 05:40:15;;;;;;;3.43;3.13;;;;;;;;;;5013734;28;20246;-84
2022/03/14 05:42:43;;;;;;;3.00;2.80;;;;;;;;;;5015614;28;20944;-85
2022/03/14 05:45:12;;;;;;;3.70;3.40;;;;;;;;;;5021352;28;20258;-85
2022/03/14 05:47:40;;;;;;;4.07;3.67;;;;;;;;;;5018373;28;20685;-86
2022/03/14 05:50:08;;;;;;;1.93;1.83;;;;;;;;;;5017032;28;20239;-85
2022/03/14 05:52:36;;;;;;;3.53;3.23;;;;;;;;;;5017898;28;20235;-84
2022/03/14 05:55:03;;;;;;;4.50;3.97;;;;;;;;;;5016532;28;20249;-86
2022/03/14 05:57:30;;;;;;;4.93;4.30;;;;;;;;;;5018012;28;20214;-85
2022/03/14 05:59:57;;;;;;;4.73;4.23;;;;;;;;;;5018142;28;20231;-85
2022/03/14 06:02:24;;;;;;;8.13;4.97;;;;;;;;;;5016314;28;20235;-85
2022/03/14 06:04:53;;;;;;;4.43;4.07;;;;;;;;;;5015480;28;20707;-86
2022/03/14 06:07:21;;;;;;;4.83;4.03;;;;;;;;;;5020626;28;20291;-84
2022/03/14 06:09:48;;;;;;;7.57;5.13;;;;;;;;;;5014092;28;20234;-85
2022/03/14 06:12:24;;;;;;;2.37;2.27;;;;;;;;;;5014202;28;20231;-85
2022/03/14 06:14:52;;;;;;;4.90;4.50;;;;;;;;;;5013733;28;20285;-85
2022/03/14 06:17:19;;;;;;;5.90;5.30;;;;;;;;;;5013792;28;20211;-83
2022/03/14 06:19:46;;;;;;;4.17;3.87;;;;;;;;;;5013858;28;20261;-84
2022/03/14 06:22:15;;;;;;;5.80;4.27;;;;;;;;;;5014781;28;20227;-85
2022/03/14 06:24:42;;;;;;;6.33;5.20;;;;;;;;;;5014086;28;20247;-85
2022/03/14 06:27:09;;;;;;;4.37;3.97;;;;;;;;;;5015140;28;20204;-84
2022/03/14 06:29:37;;;;;;;4.70;4.23;;;;;;;;;;5014686;28;20606;-84
2022/03/14 06:32:05;;;;;;;4.93;4.53;;;;;;;;;;5015540;28;20326;-84
2022/03/14 06:34:32;;;;;;;5.00;4.50;;;;;;;;;;5016036;28;20246;-84
2022/03/14 06:36:59;;;;;;;5.23;4.73;;;;;;;;;;5020019;28;20207;-84
2022/03/14 06:39:28;;;;;;;5.43;4.90;;;;;;;;;;5018447;28;20211;-83
2022/03/14 06:41:56;;;;;;;5.37;4.87;;;;;;;;;;5017641;28;20733;-83
2022/03/14 06:44:23;;;;;;;4.17;3.77;;;;;;;;;;5018298;28;20234;-82
2022/03/14 06:46:52;;;;;;;4.87;4.43;;;;;;;;;;5018937;28;20277;-83
2022/03/14 06:49:20;;;;;;;5.17;4.13;;;;;;;;;;5018866;28;20215;-83
2022/03/14 06:51:47;;;;;;;5.47;4.60;;;;;;;;;;5038143;28;20249;-83
2022/03/14 06:54:15;;;;;;;3.80;3.47;;;;;;;;;;5038187;28;20718;-83
2022/03/14 06:56:43;;;;;;;6.10;4.20;;;;;;;;;;5021743;28;20243;-83
2022/03/14 06:59:10;;;;;;;4.20;3.67;;;;;;;;;;5020435;28;20585;-83
2022/03/14 07:01:37;;;;;;;2.30;2.20;;;;;;;;;;5014974;28;20242;-83
2022/03/14 07:04:05;;;;;;;5.70;4.27;;;;;;;;;;5015138;28;20207;-83
2022/03/14 07:06:32;;;;;;;4.90;4.50;;;;;;;;;;5016647;28;20241;-83
2022/03/14 07:08:59;;;;;;;3.97;3.47;;;;;;;;;;5017578;28;20204;-83
2022/03/14 07:11:26;;;;;;;8.37;4.23;;;;;;;;;;5017801;28;20243;-82
2022/03/14 07:13:54;;;;;;;8.30;4.00;;;;;;;;;;5002842;28;20290;-82
2022/03/14 07:16:22;;;;;;;6.70;4.50;;;;;;;;;;4996471;28;20243;-82
2022/03/14 07:18:49;;;;;;;4.27;3.50;;;;;;;;;;5006756;28;20743;-83
2022/03/14 07:21:17;;;;;;;4.40;3.80;;;;;;;;;;5010600;28;20258;-83
2022/03/14 07:23:44;;;;;;;6.20;3.47;;;;;;;;;;5016368;28;20574;-83
2022/03/14 07:26:11;;;;;;;9.60;3.90;;;;;;;;;;5015162;28;20657;-83
2022/03/14 07:28:38;;;;;;;5.30;3.87;;;;;;;;;;5015275;28;20207;-83
2022/03/14 07:31:06;;;;;;;5.50;3.90;;;;;;;;;;5015371;28;20267;-83
2022/03/14 07:33:34;;;;;;;6.53;4.10;;;;;;;;;;5016549;28;20195;-82
2022/03/14 07:36:01;;;;;;;6.07;4.23;;;;;;;;;;5009280;28;20228;-83
2022/03/14 07:38:28;;;;;;;6.03;3.93;;;;;;;;;;4996384;28;20219;-82
2022/03/14 07:40:55;;;;;;;8.20;4.13;;;;;;;;;;4997050;28;20318;-83
2022/03/14 07:43:22;;;;;;;4.40;3.17;;;;;;;;;;4999715;28;20224;-83
2022/03/14 07:45:49;;;;;;;6.70;5.13;;;;;;;;;;4995267;28;20239;-82
2022/03/14 07:48:17;;;;;;;7.10;4.70;;;;;;;;;;4998559;28;20208;-83
2022/03/14 07:50:44;;;;;;;11.27;5.73;;;;;;;;;;4998180;28;20731;-83
2022/03/14 07:53:11;;;;;;;8.37;4.93;;;;;;;;;;5000110;28;20252;-82
2022/03/14 07:55:39;;;;;;;6.90;5.40;;;;;;;;;;4999154;28;20239;-83
2022/03/14 07:58:06;;;;;;;11.10;6.23;;;;;;;;;;5000015;28;20219;-84
2022/03/14 08:00:33;;;;;;;9.93;5.70;;;;;;;;;;5017065;28;20245;-83
2022/03/14 08:03:00;;;;;;;10.70;4.93;;;;;;;;;;5017343;28;20230;-84
2022/03/14 08:05:28;;;;;;;8.20;5.30;;;;;;;;;;5015048;28;20239;-83
2022/03/14 08:07:56;;;;;;;8.33;5.13;;;;;;;;;;5014804;28;20208;-84
2022/03/14 08:10:24;;;;;;;8.17;5.63;;;;;;;;;;5014504;28;20242;-84
2022/03/14 08:12:52;;;;;;;5.97;4.47;;;;;;;;;;5014962;28;20246;-84
2022/03/14 08:15:23;;;;;;;8.40;5.63;;;;;;;;;;5013894;28;20263;-83
2022/03/14 08:17:51;;;;;;;9.00;4.40;;;;;;;;;;5014168;28;20196;-83
2022/03/14 08:20:18;;;;;;;5.07;4.57;;;;;;;;;;5013963;28;20289;-84
2022/03/14 08:22:46;;;;;;;5.60;4.60;;;;;;;;;;5014907;28;20231;-83
2022/03/14 08:25:14;;;;;;;7.60;4.30;;;;;;;;;;5014518;28;20239;-85
2022/03/14 08:27:41;;;;;;;8.90;5.70;;;;;;;;;;4999949;28;20259;-83
2022/03/14 08:30:08;;;;;;;9.17;5.37;;;;;;;;;;4994779;28;20243;-81
2022/03/14 08:32:36;;;;;;;15.40;6.07;;;;;;;;;;4995040;28;20232;-84
2022/03/14 08:35:06;;;;;;;9.73;5.50;;;;;;;;;;4994535;28;20236;-84
2022/03/14 08:37:33;;;;;;;9.90;5.03;;;;;;;;;;4995636;28;20216;-84
2022/03/14 08:40:02;;;;;;;7.13;5.10;;;;;;;;;;4994782;28;20251;-84
2022/03/14 08:42:29;;;;;;;8.97;5.70;;;;;;;;;;4995039;28;20232;-84
2022/03/14 08:44:56;;;;;;;11.53;5.90;;;;;;;;;;4994545;28;20617;-84
2022/03/14 08:47:24;;;;;;;8.50;5.97;;;;;;;;;;4994412;28;20215;-84
2022/03/14 08:49:51;;;;;;;5.73;4.63;;;;;;;;;;4995294;28;20246;-84
2022/03/14 08:52:18;;;;;;;11.63;6.53;;;;;;;;;;4994578;28;20247;-84
2022/03/14 08:54:45;;;;;;;7.87;3.70;;;;;;;;;;4994454;28;20243;-84
2022/03/14 08:57:14;;;;;;;9.60;5.80;;;;;;;;;;4993775;28;20219;-83
2022/03/14 08:59:41;;;;;;;9.87;4.90;;;;;;;;;;4993420;28;20244;-84
2022/03/14 09:02:09;;;;;;;6.03;4.33;;;;;;;;;;4994192;28;20231;-84
2022/03/14 09:04:37;;;;;;;9.93;6.40;;;;;;;;;;4994064;28;20246;-84
2022/03/14 09:07:04;;;;;;;5.37;3.97;;;;;;;;;;4993933;28;20235;-85
2022/03/14 09:09:31;;;;;;;9.97;5.73;;;;;;;;;;4994433;28;20657;-83
2022/03/14 09:11:58;;;;;;;11.70;6.00;;;;;;;;;;4994059;28;20228;-85
2022/03/14 09:14:26;;;;;;;8.67;5.07;;;;;;;;;;4993751;28;20747;-85
2022/03/14 09:16:53;;;;;;;11.63;5.53;;;;;;;;;;4994235;28;20200;-85
2022/03/14 09:19:20;;;;;;;7.60;4.57;;;;;;;;;;4994819;28;20215;-85
2022/03/14 09:21:47;;;;;;;7.00;4.53;;;;;;;;;;4994030;28;20236;-85
2022/03/14 09:24:14;;;;;;;7.47;5.00;;;;;;;;;;4994935;28;20203;-86
2022/03/14 09:26:41;;;;;;;10.43;5.27;;;;;;;;;;4993309;28;20248;-86
2022/03/14 09:29:09;;;;;;;9.07;4.87;;;;;;;;;;4993336;28;20219;-86
2022/03/14 09:31:37;;;;;;;9.07;4.83;;;;;;;;;;4993981;28;20327;-86
2022/03/14 09:34:04;;;;;;;10.73;6.83;;;;;;;;;;4993843;28;20188;-86
2022/03/14 09:36:31;;;;;;;7.40;5.97;;;;;;;;;;4992406;28;20598;-86
2022/03/14 09:38:59;;;;;;;6.63;4.43;;;;;;;;;;4993184;28;20204;-85
2022/03/14 09:41:28;;;;;;;8.93;5.33;;;;;;;;;;4992945;28;20315;-86
2022/03/14 09:43:57;;;;;;;13.47;5.57;;;;;;;;;;4994770;28;20216;-83
2022/03/14 09:46:25;;;;;;;12.07;4.77;;;;;;;;;;4995540;28;20243;-84
2022/03/14 09:48:56;;;;;;;8.67;4.90;;;;;;;;;;4994720;28;20219;-83
2022/03/14 09:51:23;;;;;;;7.70;5.17;;;;;;;;;;4993147;28;20272;-84
2022/03/14 09:53:51;;;;;;;7.70;4.70;;;;;;;;;;4995045;28;20199;-84
2022/03/14 09:56:21;;;;;;;7.00;4.80;;;;;;;;;;4992143;28;20243;-84
2022/03/14 09:58:49;;;;;;;9.40;4.20;;;;;;;;;;4993352;28;20215;-83
2022/03/14 10:01:17;;;;;;;7.07;4.37;;;;;;;;;;4992004;28;20255;-84
2022/03/14 10:03:44;;;;;;;10.50;4.47;;;;;;;;;;4992996;28;20221;-83
2022/03/14 10:06:13;;;;;;;7.57;4.93;;;;;;;;;;4992042;28;20240;-84
2022/03/14 10:08:40;;;;;;;7.30;5.07;;;;;;;;;;4998767;28;20204;-84
2022/03/14 10:11:09;;;;;;;5.10;3.93;;;;;;;;;;5011845;28;20231;-84
2022/03/14 10:13:37;;;;;;;5.17;4.00;;;;;;;;;;4998850;28;20253;-84
2022/03/14 10:16:05;;;;;;;4.23;3.33;;;;;;;;;;5011995;28;20235;-83
2022/03/14 10:18:36;;;;;;;8.23;4.30;;;;;;;;;;5012892;28;20243;-83
2022/03/14 10:21:05;;;;;;;7.40;4.10;;;;;;;;;;5011108;28;20325;-83
2022/03/14 10:23:36;;;;;;;11.03;4.87;;;;;;;;;;5016407;28;20219;-83
2022/03/14 10:26:06;;;;;;;5.97;3.50;;;;;;;;;;5012018;28;20235;-83
2022/03/14 10:28:35;;;;;;;6.23;3.87;;;;;;;;;;5012325;28;20310;-83
2022/03/14 10:31:03;;;;;;;4.60;3.83;;;;;;;;;;5013696;28;20651;-83
2022/03/14 10:33:31;;;;;;;5.50;2.87;;;;;;;;;;5012450;28;20626;-83
2022/03/14 10:35:58;;;;;;;6.93;3.67;;;;;;;;;;5011927;28;20235;-83
2022/03/14 10:38:26;;;;;;;5.27;3.20;;;;;;;;;;5012252;28;20203;-83
2022/03/14 10:40:57;;;;;;;8.63;3.43;;;;;;;;;;5012108;28;20235;-83
2022/03/14 10:43:26;;;;;;;4.67;3.37;;;;;;;;;;5012367;28;20722;-83
2022/03/14 10:45:53;;;;;;;5.00;3.10;;;;;;;;;;5011681;28;20235;-83
2022/03/14 10:48:32;;;;;;;6.73;3.50;;;;;;;;;;5011683;28;20242;-84
2022/03/14 10:51:03;;;;;;;6.50;4.23;;;;;;;;;;5011811;28;20269;-85
2022/03/14 10:53:30;;;;;;;4.03;3.47;;;;;;;;;;5012191;28;20207;-83
2022/03/14 10:56:00;;;;;;;4.43;3.50;;;;;;;;;;5011769;28;20742;-84
2022/03/14 10:58:29;;;;;;;4.37;3.97;;;;;;;;;;5012297;28;20187;-83
2022/03/14 11:00:57;;;;;;;5.60;3.93;;;;;;;;;;5011761;28;20235;-82
2022/03/14 11:03:25;;;;;;;6.17;4.20;;;;;;;;;;5012483;28;20232;-83
2022/03/14 11:05:52;;;;;;;5.30;3.87;;;;;;;;;;5011936;28;20239;-82
2022/03/14 11:08:29;;;;;;;4.17;2.93;;;;;;;;;;5008789;28;20219;-83
2022/03/14 11:10:57;;;;;;;5.90;3.67;;;;;;;;;;5000119;28;20263;-82
2022/03/14 11:13:26;;;;;;;4.10;3.70;;;;;;;;;;4992598;28;20228;-83
2022/03/14 11:15:53;;;;;;;3.57;3.27;;;;;;;;;;4992061;28;20651;-83
2022/03/14 11:18:20;;;;;;;4.57;3.30;;;;;;;;;;4992048;28;20262;-83
2022/03/14 11:20:47;;;;;;;4.23;3.30;;;;;;;;;;4992245;28;20240;-82
2022/03/14 11:23:15;;;;;;;5.13;3.43;;;;;;;;;;4995473;28;20239;-84
2022/03/14 11:25:44;;;;;;;3.20;2.90;;;;;;;;;;4994614;28;20267;-84
2022/03/14 11:28:12;;;;;;;4.20;3.50;;;;;;;;;;4995516;28;20212;-84
2022/03/14 11:30:41;;;;;;;4.17;3.27;;;;;;;;;;4994596;28;20724;-84
2022/03/14 11:33:08;;;;;;;5.83;3.50;;;;;;;;;;4995596;28;20239;-84
2022/03/14 11:35:35;;;;;;;3.07;2.77;;;;;;;;;;5011175;28;20234;-84
2022/03/14 11:38:03;;;;;;;4.73;3.23;;;;;;;;;;5015166;28;20210;-85
2022/03/14 11:40:30;;;;;;;5.73;3.07;;;;;;;;;;5002438;28;20247;-84
2022/03/14 11:42:58;;;;;;;3.07;2.53;;;;;;;;;;5010472;28;20231;-84
2022/03/14 11:45:26;;;;;;;3.27;2.97;;;;;;;;;;5006272;28;20234;-84
2022/03/14 11:47:54;;;;;;;5.37;3.03;;;;;;;;;;5011163;28;20664;-84
2022/03/14 11:50:22;;;;;;;3.80;2.50;;;;;;;;;;5013748;28;20234;-84
2022/03/14 11:52:51;;;;;;;2.97;2.70;;;;;;;;;;5014383;28;20267;-84
2022/03/14 11:55:19;;;;;;;4.53;2.90;;;;;;;;;;5013746;28;20318;-84
2022/03/14 11:57:47;;;;;;;4.93;2.57;;;;;;;;;;5013539;28;20207;-84
2022/03/14 12:00:33;;;;;;;3.23;2.30;;;;;;;;;;5021427;28;20297;-84
2022/03/14 12:03:02;;;;;;;3.30;2.87;;;;;;;;;;5034349;28;20663;-84
2022/03/14 12:05:44;;;;;;;2.30;1.70;;;;;;;;;;5033775;28;20226;-84
2022/03/14 12:08:34;;;;;;;3.53;2.30;;;;;;;;;;5027907;28;20211;-84
2022/03/14 12:11:16;;;;;;;2.83;2.40;;;;;;;;;;5007527;28;20239;-84
2022/03/14 12:13:43;;;;;;;5.63;2.93;;;;;;;;;;5014278;28;20235;-83
2022/03/14 12:16:35;;;;;;;2.97;2.63;;;;;;;;;;4998821;28;20380;-84
2022/03/14 12:19:24;;;;;;;2.77;2.57;;;;;;;;;;4994555;28;20198;-84
2022/03/14 12:21:52;;;;;;;3.87;2.77;;;;;;;;;;5013578;28;20270;-84
2022/03/14 12:24:20;;;;;;;3.53;2.70;;;;;;;;;;5026284;28;20240;-84
2022/03/14 12:26:47;;;;;;;3.80;2.73;;;;;;;;;;5013053;28;20254;-83
2022/03/14 12:29:32;;;;;;;2.63;2.30;;;;;;;;;;5013724;28;20222;-83
2022/03/14 12:32:14;;;;;;;3.03;2.73;;;;;;;;;;5012967;28;20293;-84
2022/03/14 12:34:43;;;;;;;3.30;2.67;;;;;;;;;;5016490;28;20245;-84
2022/03/14 12:37:25;;;;;;;4.00;2.23;;;;;;;;;;5015793;28;20227;-84
2022/03/14 12:39:52;;;;;;;5.20;2.83;;;;;;;;;;5017211;28;20261;-84
2022/03/14 12:42:24;;;;;;;1.70;1.60;;;;;;;;;;5033046;28;20722;-84
2022/03/14 12:45:10;;;;;;;3.03;2.60;;;;;;;;;;5032878;28;20242;-84
2022/03/14 12:47:40;;;;;;;2.50;2.27;;;;;;;;;;5033410;28;20264;-84
2022/03/14 12:50:10;;;;;;;2.60;2.40;;;;;;;;;;5026667;28;20258;-84
2022/03/14 12:52:52;;;;;;;3.07;2.50;;;;;;;;;;5013728;28;20948;-84
2022/03/14 12:55:20;;;;;;;4.03;2.50;;;;;;;;;;5012730;28;20239;-84
2022/03/14 12:57:52;;;;;;;3.20;2.50;;;;;;;;;;5013670;28;20207;-84
2022/03/14 13:00:19;;;;;;;5.10;2.50;;;;;;;;;;5014702;28;20235;-84
2022/03/14 13:02:46;;;;;;;2.63;2.40;;;;;;;;;;5015315;28;20235;-84
2022/03/14 13:05:19;;;;;;;4.37;2.63;;;;;;;;;;5023227;28;20230;-84
2022/03/14 13:07:46;;;;;;;3.40;2.67;;;;;;;;;;5033206;28;20217;-84
2022/03/14 13:10:13;;;;;;;3.53;2.80;;;;;;;;;;5032445;28;20733;-84
2022/03/14 13:12:52;;;;;;;2.70;2.50;;;;;;;;;;5033084;28;20241;-84
2022/03/14 13:15:19;;;;;;;3.03;2.73;;;;;;;;;;5032454;28;20234;-84
2022/03/14 13:17:49;;;;;;;2.97;2.60;;;;;;;;;;5032818;28;20202;-84
2022/03/14 13:20:26;;;;;;;3.80;2.60;;;;;;;;;;5032578;28;20589;-84
2022/03/14 13:22:53;;;;;;;2.60;2.20;;;;;;;;;;5033255;28;20269;-84
2022/03/14 13:25:30;;;;;;;4.13;2.57;;;;;;;;;;5032461;28;20238;-84
2022/03/14 13:27:57;;;;;;;3.70;2.30;;;;;;;;;;5033387;28;20202;-84
2022/03/14 13:30:24;;;;;;;3.20;2.67;;;;;;;;;;5032213;28;20242;-84
2022/03/14 13:32:51;;;;;;;4.63;2.13;;;;;;;;;;5031687;28;20227;-84
2022/03/14 13:35:18;;;;;;;2.60;2.40;;;;;;;;;;5031931;28;20752;-84
2022/03/14 13:37:47;;;;;;;2.90;2.70;;;;;;;;;;5031853;28;20238;-84
2022/03/14 13:40:18;;;;;;;3.23;2.00;;;;;;;;;;5032237;28;20257;-84
2022/03/14 13:42:46;;;;;;;4.40;2.60;;;;;;;;;;5024876;28;20238;-84
2022/03/14 13:45:13;;;;;;;3.63;2.40;;;;;;;;;;5011625;28;20613;-85
2022/03/14 13:47:41;;;;;;;2.53;2.23;;;;;;;;;;5012899;28;20294;-84
2022/03/14 13:50:09;;;;;;;4.67;2.63;;;;;;;;;;5014241;28;20657;-85
2022/03/14 13:52:36;;;;;;;3.57;2.57;;;;;;;;;;5033288;28;20238;-83
2022/03/14 13:55:13;;;;;;;2.70;2.50;;;;;;;;;;5033949;28;20243;-84
2022/03/14 13:57:40;;;;;;;2.50;2.27;;;;;;;;;;5031933;28;20281;-83
2022/03/14 14:00:13;;;;;;;2.70;2.20;;;;;;;;;;5032080;28;20246;-85
2022/03/14 14:02:40;;;;;;;2.73;1.80;;;;;;;;;;5032979;28;20258;-85
2022/03/14 14:05:09;;;;;;;3.50;2.40;;;;;;;;;;5028216;28;20258;-84
2022/03/14 14:07:36;;;;;;;2.93;2.27;;;;;;;;;;5012531;28;20211;-85
2022/03/14 14:10:10;;;;;;;2.70;2.23;;;;;;;;;;5012459;28;20246;-86
2022/03/14 14:12:39;;;;;;;3.13;2.63;;;;;;;;;;5012810;28;20226;-85
2022/03/14 14:15:07;;;;;;;2.50;2.30;;;;;;;;;;5027885;28;20238;-86
2022/03/14 14:17:35;;;;;;;3.00;2.27;;;;;;;;;;5031595;28;20240;-85
2022/03/14 14:20:04;;;;;;;2.50;2.30;;;;;;;;;;5032365;28;20239;-85
2022/03/14 14:22:32;;;;;;;4.63;2.33;;;;;;;;;;5032518;28;20237;-85
2022/03/14 14:24:59;;;;;;;3.17;2.60;;;;;;;;;;5016496;28;20432;-85
2022/03/14 14:27:27;;;;;;;2.53;2.33;;;;;;;;;;5013387;28;20218;-85
2022/03/14 14:29:56;;;;;;;3.13;2.50;;;;;;;;;;5012479;28;20235;-85
2022/03/14 14:32:24;;;;;;;3.83;2.60;;;;;;;;;;5012795;28;20310;-85
2022/03/14 14:34:51;;;;;;;3.57;2.13;;;;;;;;;;5012413;28;20589;-85
2022/03/14 14:37:18;;;;;;;2.53;2.10;;;;;;;;;;5012571;28;20231;-86
2022/03/14 14:39:46;;;;;;;2.87;2.40;;;;;;;;;;5020444;28;20239;-85
2022/03/14 14:42:13;;;;;;;2.63;2.43;;;;;;;;;;5014566;28;20254;-86